The Terrace, New York
Current Conditions -  °F | °C
As of 7:51 AM on Friday 24 Oct 2014 (Local Time) from KLGA Reporting Station
Broken Clouds Broken Clouds  
Wind Chill: 52°   Ceiling: 10000
Heat Index: 52°   Visibility: 10mi
Dew Point: 44°   Wind: 10mph
Humidity: 74%   Direction: 330°NNW
Pressure: 29.81"   Gusts: NA
Location:  40.8387°N, 73.6912°W
Report Text: KLGA 241151Z 33009KT 10SM FEW024 BKN100 BKN250 11/07 A2981 RMK AO2 SLP094 60000 70023 T01110067 10117 20106 53010
Loading
Personal Weather Stations






























Interactive Weather Map
Tropical Storm Tracking
New forecast layout! Learn more

10-Day Weather Forecast

Advertisements
Track Severe Weather on mobile